createdAt,value
2019-05-05T00:04:30.102Z,4.67
2019-05-05T00:09:25.238Z,9.13
2019-05-05T00:14:45.652Z,5.30
2019-05-05T00:19:39.025Z,7.33
2019-05-05T00:24:32.358Z,8.10
2019-05-05T00:29:25.809Z,7.43
2019-05-05T00:34:19.210Z,6.03
2019-05-05T00:39:14.786Z,6.67
2019-05-05T00:44:05.895Z,10.07
2019-05-05T00:48:59.637Z,5.67
2019-05-05T00:53:55.277Z,8.93
2019-05-05T00:58:55.267Z,6.43
2019-05-05T01:03:47.025Z,9.87
2019-05-05T01:08:40.524Z,6.17
2019-05-05T01:13:35.154Z,9.43
2019-05-05T01:18:27.230Z,7.53
2019-05-05T01:23:20.572Z,8.47
2019-05-05T01:28:14.378Z,7.63
2019-05-05T01:33:14.451Z,8.70
2019-05-05T01:38:09.671Z,8.17
2019-05-05T01:43:05.299Z,7.77
2019-05-05T01:47:56.869Z,7.37
2019-05-05T01:52:50.772Z,7.93
2019-05-05T01:57:45.081Z,10.90
2019-05-05T02:02:37.520Z,8.20
2019-05-05T02:07:30.857Z,11.00
2019-05-05T02:12:24.739Z,9.13
2019-05-05T02:17:17.639Z,13.32
2019-05-05T02:22:10.979Z,10.00
2019-05-05T02:27:05.149Z,7.17
2019-05-05T02:32:26.114Z,6.47
2019-05-05T02:37:19.490Z,11.17
2019-05-05T02:42:14.659Z,7.87
2019-05-05T02:47:10.976Z,7.73
2019-05-05T02:52:04.896Z,7.27
2019-05-05T02:56:57.952Z,8.53
2019-05-05T03:02:04.273Z,8.23
2019-05-05T03:06:57.095Z,7.90
2019-05-05T03:11:50.602Z,8.23
2019-05-05T03:16:44.071Z,10.90
2019-05-05T03:21:37.510Z,9.73
2019-05-05T03:26:30.850Z,8.87
2019-05-05T03:31:26.293Z,9.63
2019-05-05T03:36:18.165Z,11.63
2019-05-05T03:41:16.586Z,9.93
2019-05-05T03:46:09.921Z,7.60
2019-05-05T03:51:16.028Z,11.37
2019-05-05T03:55:57.153Z,8.23
2019-05-05T04:01:10.157Z,8.63
2019-05-05T04:06:04.785Z,8.30
2019-05-05T04:10:58.089Z,7.37
2019-05-05T04:16:23.789Z,4.80
2019-05-05T04:21:29.885Z,6.70
2019-05-05T04:26:10.566Z,7.20
2019-05-05T04:31:04.266Z,8.00
2019-05-05T04:35:57.582Z,8.87
2019-05-05T04:40:50.920Z,6.20
2019-05-05T04:45:44.270Z,10.67
2019-05-05T04:51:00.067Z,7.73
2019-05-05T04:55:53.652Z,11.47
2019-05-05T05:00:46.734Z,6.80
2019-05-05T05:05:55.184Z,8.30
2019-05-05T05:10:48.503Z,9.53
2019-05-05T05:15:41.859Z,8.37
2019-05-05T05:20:35.209Z,6.23
2019-05-05T05:25:28.542Z,8.10
2019-05-05T05:30:24.132Z,9.53
2019-05-05T05:35:15.329Z,8.77
2019-05-05T05:40:15.574Z,10.40
2019-05-05T05:45:23.823Z,9.50
2019-05-05T05:50:30.913Z,6.37
2019-05-05T05:55:24.294Z,10.37
2019-05-05T06:00:17.639Z,9.93
2019-05-05T06:05:10.953Z,11.70
2019-05-05T06:10:04.493Z,10.47
2019-05-05T06:14:57.846Z,13.27
2019-05-05T06:19:51.175Z,8.57
2019-05-05T06:24:44.505Z,9.77
2019-05-05T06:29:37.877Z,10.60
2019-05-05T06:34:31.243Z,8.37
2019-05-05T06:39:24.632Z,10.60
2019-05-05T06:44:28.724Z,8.77
2019-05-05T06:49:23.805Z,10.90
2019-05-05T06:54:15.408Z,11.63
2019-05-05T06:59:08.766Z,12.88
2019-05-05T07:04:03.469Z,11.87
2019-05-05T07:08:55.645Z,10.20
2019-05-05T07:13:48.949Z,10.97
2019-05-05T07:18:44.397Z,14.50
2019-05-05T07:23:35.783Z,11.47
2019-05-05T07:28:29.121Z,13.83
2019-05-05T07:33:23.880Z,16.17
2019-05-05T07:38:15.796Z,16.27
2019-05-05T07:43:09.147Z,15.73
2019-05-05T07:48:04.642Z,15.33
2019-05-05T07:52:55.853Z,13.10
2019-05-05T07:57:49.232Z,14.77
2019-05-05T08:02:43.896Z,17.30
2019-05-05T08:07:35.936Z,16.40
2019-05-05T08:12:29.586Z,12.60
2019-05-05T08:17:31.407Z,13.07
2019-05-05T08:22:24.759Z,12.90
2019-05-05T08:27:36.467Z,16.83
2019-05-05T08:32:35.527Z,14.57
2019-05-05T08:37:26.115Z,14.63
2019-05-05T08:42:19.681Z,14.97
2019-05-05T08:47:13.928Z,14.80
2019-05-05T08:52:06.420Z,14.17
2019-05-05T08:56:59.752Z,8.57
2019-05-05T09:01:54.135Z,11.73
2019-05-05T09:06:46.474Z,12.97
2019-05-05T09:11:39.957Z,11.13
2019-05-05T09:16:33.592Z,12.53
2019-05-05T09:21:26.688Z,15.07
2019-05-05T09:26:48.566Z,8.60
2019-05-05T09:31:41.864Z,13.37
2019-05-05T09:36:35.204Z,12.87
2019-05-05T09:41:28.781Z,9.90
2019-05-05T09:46:23.541Z,12.40
2019-05-05T09:51:15.612Z,12.77
2019-05-05T09:56:08.919Z,10.93
2019-05-05T10:01:03.967Z,9.73
2019-05-05T10:05:55.869Z,12.43
2019-05-05T10:10:49.366Z,12.43
2019-05-05T10:15:44.313Z,11.47
2019-05-05T10:20:36.118Z,13.67
2019-05-05T10:25:35.496Z,11.83
2019-05-05T10:30:29.029Z,11.03
2019-05-05T10:35:23.717Z,13.33
2019-05-05T10:40:15.908Z,16.17
2019-05-05T10:45:09.258Z,10.40
2019-05-05T10:50:05.024Z,11.00
2019-05-05T10:54:56.440Z,10.90
2019-05-05T10:59:49.896Z,9.47
2019-05-05T11:04:44.220Z,8.33
2019-05-05T11:09:36.687Z,5.70
2019-05-05T11:14:30.210Z,9.60
2019-05-05T11:19:24.165Z,9.77
2019-05-05T11:24:17.099Z,8.63
2019-05-05T11:29:10.503Z,5.90
2019-05-05T11:34:18.786Z,5.97
2019-05-05T11:39:14.627Z,6.73
2019-05-05T11:44:05.882Z,6.47
2019-05-05T11:48:59.364Z,5.93
2019-05-05T11:53:54.070Z,7.33
2019-05-05T11:58:46.063Z,6.93
2019-05-05T12:03:39.402Z,5.93
2019-05-05T12:08:34.478Z,5.43
2019-05-05T12:13:26.111Z,8.23
2019-05-05T12:18:19.853Z,5.77
2019-05-05T12:23:13.195Z,6.57
2019-05-05T12:28:10.153Z,10.03
2019-05-05T12:33:04.755Z,8.00
2019-05-05T12:37:56.978Z,6.17
2019-05-05T12:42:50.297Z,6.33
2019-05-05T12:47:45.947Z,5.13
2019-05-05T12:52:39.437Z,5.57
2019-05-05T12:57:34.297Z,3.87
2019-05-05T13:02:26.211Z,7.10
2019-05-05T13:07:19.552Z,4.87
2019-05-05T13:12:14.820Z,4.70
2019-05-05T13:17:06.305Z,5.63
2019-05-05T13:22:08.284Z,3.30
2019-05-05T13:27:12.075Z,5.47
2019-05-05T13:32:04.660Z,4.60
2019-05-05T13:36:57.987Z,5.77
2019-05-05T13:41:53.629Z,5.83
2019-05-05T13:46:45.019Z,5.93
2019-05-05T13:51:38.437Z,8.43
2019-05-05T13:56:33.546Z,5.07
2019-05-05T14:01:25.179Z,4.50
2019-05-05T14:06:18.542Z,6.90
2019-05-05T14:11:14.074Z,6.33
2019-05-05T14:16:05.264Z,5.73
2019-05-05T14:20:58.707Z,5.23
2019-05-05T14:25:52.053Z,6.63
2019-05-05T14:31:16.792Z,6.50
2019-05-05T14:36:24.356Z,3.83
2019-05-05T14:41:16.149Z,5.40
2019-05-05T14:46:09.489Z,5.10
2019-05-05T14:51:03.964Z,5.37
2019-05-05T14:55:56.863Z,5.37
2019-05-05T15:00:50.278Z,5.90
2019-05-05T15:05:50.881Z,8.90
2019-05-05T15:11:03.675Z,5.60
2019-05-05T15:15:55.873Z,4.67
2019-05-05T15:20:51.727Z,7.07
2019-05-05T15:25:44.507Z,4.37
2019-05-05T15:30:36.039Z,3.93
2019-05-05T15:35:29.379Z,5.07
2019-05-05T15:40:24.661Z,9.37
2019-05-05T15:45:16.076Z,3.80
2019-05-05T15:50:09.917Z,3.40
2019-05-05T15:55:04.522Z,5.57
2019-05-05T15:59:56.941Z,4.90
2019-05-05T16:04:50.240Z,5.87
2019-05-05T16:09:44.498Z,9.07
2019-05-05T16:14:38.882Z,7.20
2019-05-05T16:19:49.851Z,9.90
2019-05-05T16:24:44.714Z,8.60
2019-05-05T16:29:37.765Z,5.27
2019-05-05T16:34:31.070Z,6.87
2019-05-05T16:39:25.653Z,6.03
2019-05-05T16:44:17.711Z,6.60
2019-05-05T16:49:11.587Z,8.03
2019-05-05T16:54:07.415Z,5.97
2019-05-05T16:59:00.728Z,8.47
2019-05-05T17:03:54.330Z,6.05
2019-05-05T17:08:47.588Z,8.00
2019-05-05T17:14:00.221Z,7.37
2019-05-05T17:19:01.354Z,6.30
2019-05-05T17:23:54.675Z,7.93
2019-05-05T17:28:48.001Z,4.87
2019-05-05T17:33:41.341Z,4.73
2019-05-05T17:38:34.666Z,6.33
2019-05-05T17:43:47.284Z,6.00
2019-05-05T17:48:59.897Z,8.00
2019-05-05T17:54:01.792Z,6.47
2019-05-05T17:58:55.149Z,8.57
2019-05-05T18:03:48.493Z,7.27
2019-05-05T18:08:44.818Z,6.77
2019-05-05T18:13:43.420Z,6.17
2019-05-05T18:18:35.103Z,6.83
2019-05-05T18:23:28.954Z,7.10
2019-05-05T18:28:24.561Z,7.33
2019-05-05T18:33:15.615Z,4.87
2019-05-05T18:38:08.934Z,6.73
2019-05-05T18:43:04.026Z,6.77
2019-05-05T18:47:56.915Z,4.90
2019-05-05T18:52:50.578Z,8.23
2019-05-05T18:57:43.925Z,5.80
2019-05-05T19:02:53.612Z,5.97
2019-05-05T19:07:58.984Z,4.07
2019-05-05T19:12:54.100Z,4.53
2019-05-05T19:17:45.668Z,6.30
2019-05-05T19:22:39.125Z,5.00
2019-05-05T19:27:33.595Z,4.83
2019-05-05T19:32:25.879Z,7.00
2019-05-05T19:37:19.251Z,6.67
2019-05-05T19:42:14.431Z,6.87
2019-05-05T19:47:24.659Z,5.60
2019-05-05T19:52:17.504Z,5.33
2019-05-05T19:57:10.816Z,5.67
2019-05-05T20:02:04.138Z,6.13
2019-05-05T20:06:57.441Z,7.77
2019-05-05T20:11:51.039Z,6.23
2019-05-05T20:17:04.267Z,6.10
2019-05-05T20:21:57.149Z,6.33
2019-05-05T20:26:50.467Z,3.37
2019-05-05T20:31:43.894Z,7.87
2019-05-05T20:36:56.294Z,4.57
2019-05-05T20:41:49.689Z,7.27
2019-05-05T20:46:43.966Z,7.60
2019-05-05T20:51:36.478Z,10.70
2019-05-05T20:56:29.789Z,8.33
2019-05-05T21:01:24.630Z,6.97
2019-05-05T21:06:16.554Z,11.70
2019-05-05T21:11:09.975Z,6.67
2019-05-05T21:16:03.300Z,5.57
2019-05-05T21:20:56.738Z,5.93
2019-05-05T21:25:56.927Z,8.23
2019-05-05T21:30:50.563Z,7.93
2019-05-05T21:35:44.178Z,8.23
2019-05-05T21:40:37.624Z,8.83
2019-05-05T21:45:31.597Z,6.80
2019-05-05T21:50:29.266Z,7.60
2019-05-05T21:55:30.226Z,4.87
2019-05-05T22:00:57.392Z,10.13
2019-05-05T22:05:50.735Z,6.53
2019-05-05T22:10:44.300Z,5.00
2019-05-05T22:15:37.657Z,6.30
2019-05-05T22:20:36.786Z,7.87
2019-05-05T22:25:28.351Z,7.43
2019-05-05T22:30:23.650Z,7.63
2019-05-05T22:35:16.322Z,12.07
2019-05-05T22:40:08.527Z,10.07
2019-05-05T22:45:01.883Z,6.67
2019-05-05T22:49:55.322Z,8.27
2019-05-05T22:54:48.655Z,6.03
2019-05-05T22:59:42.002Z,6.67
2019-05-05T23:04:57.473Z,7.93
2019-05-05T23:09:50.938Z,6.93
2019-05-05T23:14:44.264Z,7.07
2019-05-05T23:19:41.878Z,9.07
2019-05-05T23:24:49.098Z,5.23
2019-05-05T23:29:44.529Z,4.37
2019-05-05T23:34:35.909Z,8.43
2019-05-05T23:39:29.347Z,4.63
2019-05-05T23:44:23.829Z,8.63
2019-05-05T23:49:16.108Z,7.50
2019-05-05T23:54:09.592Z,3.43
2019-05-05T23:59:04.359Z,8.40
